Current Conditions
Clear
Conditions



Pressure
1011.85 (hPa) - 29.88 (inHG)
Visibility

9.7 (km) - 6.0 (miles)
   Temperature
24  °C
75°F
19  °C
Dewpoint
74  %
 Humidity
   Wind Speed
2  km/h
1  kts
1  mph
0.4  m/s
   Wind Direction
 110°
East South
East
   Airport Data
LHPR
Location Győr-Pér International Airport 10 km (6.22 mi)
Metar :LHPR 152245Z AUTO 11001KT CAVOK 24/19 Q1012
Tue 16th July 00:45 am
   Raw Metar Info
Raw METAR is the most common format in the world for the transmission of observational weather data. It is highly standardized through the International Civil Aviation Organization (ICAO), which allows it to be understood throughout most of the world.
   API Info
Data Provided by
https://www.checkwx.com/weather/LHPR
   © Info
CSS/SVG/PHP scripts were developed by weather34.com for use in the weather34 template © 2015-2024

Guide Info provided by Metar-Wikipedia